createdAt,value
2018-05-23T00:02:11.335Z,17.06
2018-05-23T00:04:39.733Z,17.08
2018-05-23T00:07:07.802Z,17.06
2018-05-23T00:09:36.122Z,17.05
2018-05-23T00:12:04.296Z,16.97
2018-05-23T00:14:32.886Z,16.91
2018-05-23T00:17:00.668Z,16.84
2018-05-23T00:19:28.479Z,16.82
2018-05-23T00:21:57.204Z,16.79
2018-05-23T00:24:25.047Z,16.75
2018-05-23T00:26:52.923Z,16.66
2018-05-23T00:29:21.268Z,16.65
2018-05-23T00:31:49.991Z,16.58
2018-05-23T00:34:17.863Z,16.56
2018-05-23T00:36:46.290Z,16.43
2018-05-23T00:39:14.268Z,16.24
2018-05-23T00:41:42.087Z,16.15
2018-05-23T00:44:10.317Z,16.18
2018-05-23T00:46:38.081Z,16.15
2018-05-23T00:49:05.879Z,16.15
2018-05-23T00:51:33.973Z,16.14
2018-05-23T00:54:01.813Z,16.01
2018-05-23T00:56:29.782Z,15.87
2018-05-23T00:58:58.160Z,15.75
2018-05-23T01:01:26.340Z,15.67
2018-05-23T01:03:54.274Z,15.57
2018-05-23T01:06:22.577Z,15.51
2018-05-23T01:08:50.606Z,15.45
2018-05-23T01:11:18.720Z,15.41
2018-05-23T01:13:47.048Z,15.45
2018-05-23T01:16:15.374Z,15.50
2018-05-23T01:18:43.345Z,15.45
2018-05-23T01:21:11.743Z,15.38
2018-05-23T01:23:40.001Z,15.39
2018-05-23T01:26:07.848Z,15.33
2018-05-23T01:28:35.840Z,15.28
2018-05-23T01:31:04.008Z,15.34
2018-05-23T01:33:32.046Z,15.35
2018-05-23T01:36:00.254Z,15.50
2018-05-23T01:38:28.427Z,15.70
2018-05-23T01:40:56.297Z,15.58
2018-05-23T01:43:24.365Z,15.76
2018-05-23T01:45:52.738Z,15.84
2018-05-23T01:48:20.792Z,15.59
2018-05-23T01:50:49.290Z,15.84
2018-05-23T01:53:17.263Z,15.82
2018-05-23T01:55:45.183Z,15.57
2018-05-23T01:58:13.302Z,15.57
2018-05-23T02:00:41.375Z,15.52
2018-05-23T02:03:09.240Z,15.42
2018-05-23T02:05:37.310Z,15.40
2018-05-23T02:08:05.386Z,15.43
2018-05-23T02:10:33.143Z,15.50
2018-05-23T02:13:01.387Z,15.51
2018-05-23T02:15:29.729Z,15.50
2018-05-23T02:17:57.874Z,15.50
2018-05-23T02:20:25.960Z,15.48
2018-05-23T02:22:53.975Z,15.41
2018-05-23T02:25:21.981Z,15.47
2018-05-23T02:27:50.154Z,15.33
2018-05-23T02:30:18.244Z,15.45
2018-05-23T02:32:46.094Z,15.46
2018-05-23T02:35:14.129Z,15.48
2018-05-23T02:37:42.161Z,15.43
2018-05-23T02:40:09.887Z,15.44
2018-05-23T02:42:38.178Z,15.50
2018-05-23T02:45:06.319Z,15.46
2018-05-23T02:47:34.108Z,15.40
2018-05-23T02:50:02.287Z,15.33
2018-05-23T02:52:30.489Z,15.32
2018-05-23T02:54:58.327Z,15.27
2018-05-23T02:57:26.495Z,15.26
2018-05-23T02:59:54.800Z,15.15
2018-05-23T03:02:22.640Z,15.11
2018-05-23T03:04:50.938Z,15.10
2018-05-23T03:07:18.983Z,15.08
2018-05-23T03:09:46.755Z,15.01
2018-05-23T03:12:14.999Z,15.03
2018-05-23T03:14:43.367Z,15.07
2018-05-23T03:17:11.239Z,15.14
2018-05-23T03:19:39.558Z,15.07
2018-05-23T03:22:07.642Z,15.02
2018-05-23T03:24:35.585Z,14.93
2018-05-23T03:27:03.971Z,14.94
2018-05-23T03:29:31.917Z,14.98
2018-05-23T03:31:59.719Z,14.98
2018-05-23T03:34:28.593Z,15.03
2018-05-23T03:36:56.557Z,15.04
2018-05-23T03:39:24.422Z,15.07
2018-05-23T03:41:52.728Z,15.12
2018-05-23T03:44:20.874Z,15.17
2018-05-23T03:46:48.753Z,15.18
2018-05-23T03:49:16.913Z,15.27
2018-05-23T03:51:45.169Z,15.27
2018-05-23T03:54:13.056Z,15.23
2018-05-23T03:56:41.233Z,15.14
2018-05-23T03:59:09.404Z,15.17
2018-05-23T04:01:49.454Z,15.12
2018-05-23T04:04:29.100Z,15.18
2018-05-23T04:10:01.060Z,15.17
2018-05-23T04:12:29.732Z,15.24
2018-05-23T04:14:58.042Z,15.26
2018-05-23T04:17:25.922Z,15.28
2018-05-23T04:19:54.298Z,15.28
2018-05-23T04:22:22.765Z,15.33
2018-05-23T04:24:50.759Z,15.39
2018-05-23T04:27:18.911Z,15.38
2018-05-23T04:29:46.943Z,15.46
2018-05-23T04:32:14.866Z,15.51
2018-05-23T04:34:42.918Z,15.60
2018-05-23T04:37:11.406Z,15.67
2018-05-23T04:39:39.278Z,15.75
2018-05-23T04:42:07.336Z,15.79
2018-05-23T04:44:35.639Z,15.79
2018-05-23T04:47:03.989Z,15.80
2018-05-23T04:49:32.680Z,15.95
2018-05-23T04:52:00.444Z,15.99
2018-05-23T04:54:28.460Z,16.04
2018-05-23T04:56:56.606Z,16.06
2018-05-23T04:59:24.456Z,16.06
2018-05-23T05:01:52.829Z,16.08
2018-05-23T05:04:21.111Z,16.12
2018-05-23T05:06:48.973Z,16.10
2018-05-23T05:09:17.099Z,16.20
2018-05-23T05:11:46.417Z,16.28
2018-05-23T05:14:14.410Z,16.29
2018-05-23T05:16:43.124Z,16.36
2018-05-23T05:19:11.372Z,16.38
2018-05-23T05:21:39.345Z,16.44
2018-05-23T05:24:07.517Z,16.50
2018-05-23T05:26:35.802Z,16.57
2018-05-23T05:29:03.767Z,16.58
2018-05-23T05:31:32.104Z,16.61
2018-05-23T05:34:00.522Z,16.77
2018-05-23T05:36:28.895Z,16.87
2018-05-23T05:38:57.230Z,16.91
2018-05-23T05:41:25.339Z,16.97
2018-05-23T05:43:53.178Z,17.05
2018-05-23T05:46:21.346Z,17.17
2018-05-23T05:48:49.890Z,17.29
2018-05-23T05:51:17.704Z,17.40
2018-05-23T05:53:45.617Z,17.50
2018-05-23T05:56:14.214Z,17.58
2018-05-23T05:58:42.413Z,17.68
2018-05-23T06:01:11.348Z,17.73
2018-05-23T06:03:39.850Z,17.78
2018-05-23T06:06:07.744Z,17.87
2018-05-23T06:08:35.588Z,17.93
2018-05-23T06:11:04.874Z,18.02
2018-05-23T06:13:32.697Z,18.09
2018-05-23T06:16:00.711Z,18.19
2018-05-23T06:18:29.212Z,18.29
2018-05-23T06:20:57.256Z,18.41
2018-05-23T06:23:25.116Z,18.49
2018-05-23T06:25:53.596Z,18.50
2018-05-23T06:28:21.715Z,18.55
2018-05-23T06:30:49.635Z,18.54
2018-05-23T06:33:17.908Z,18.56
2018-05-23T06:35:46.003Z,18.57
2018-05-23T06:38:14.263Z,18.73
2018-05-23T06:40:42.434Z,18.83
2018-05-23T06:43:10.298Z,18.84
2018-05-23T06:45:38.639Z,18.91
2018-05-23T06:48:06.851Z,18.95
2018-05-23T06:50:34.729Z,19.03
2018-05-23T06:53:02.792Z,19.12
2018-05-23T06:55:30.963Z,19.20
2018-05-23T06:57:58.881Z,19.25
2018-05-23T07:00:27.749Z,19.29
2018-05-23T07:02:55.795Z,19.30
2018-05-23T07:05:23.582Z,19.34
2018-05-23T07:07:51.628Z,19.37
2018-05-23T07:10:19.696Z,19.46
2018-05-23T07:12:47.568Z,19.55
2018-05-23T07:15:15.843Z,19.66
2018-05-23T07:17:44.114Z,19.73
2018-05-23T07:20:12.398Z,19.78
2018-05-23T07:22:40.674Z,19.89
2018-05-23T07:25:08.975Z,20.00
2018-05-23T07:27:37.016Z,20.05
2018-05-23T07:30:04.876Z,20.08
2018-05-23T07:32:33.106Z,20.14
2018-05-23T07:35:01.464Z,20.18
2018-05-23T07:37:29.400Z,20.93
2018-05-23T07:39:57.746Z,22.81
2018-05-23T07:42:26.057Z,24.00
2018-05-23T07:44:53.922Z,24.41
2018-05-23T07:47:22.402Z,24.99
2018-05-23T07:49:50.474Z,25.19
2018-05-23T07:52:18.505Z,25.45
2018-05-23T07:54:46.991Z,25.70
2018-05-23T07:57:17.251Z,25.78
2018-05-23T07:59:49.314Z,26.09
2018-05-23T08:02:18.189Z,26.39
2018-05-23T08:04:45.896Z,25.99
2018-05-23T08:07:13.780Z,25.34
2018-05-23T08:09:42.313Z,25.01
2018-05-23T08:12:14.481Z,24.75
2018-05-23T08:14:42.328Z,24.21
2018-05-23T08:17:10.857Z,23.98
2018-05-23T08:19:39.028Z,24.24
2018-05-23T08:22:06.899Z,24.18
2018-05-23T08:24:35.271Z,24.09
2018-05-23T08:27:03.196Z,24.06
2018-05-23T08:29:31.521Z,24.08
2018-05-23T08:32:00.280Z,24.21
2018-05-23T08:34:28.148Z,24.40
2018-05-23T08:36:56.213Z,24.43
2018-05-23T08:39:24.423Z,24.30
2018-05-23T08:41:52.565Z,24.22
2018-05-23T08:44:20.942Z,24.26
2018-05-23T08:46:49.628Z,24.05
2018-05-23T08:49:17.428Z,24.21
2018-05-23T08:51:45.739Z,24.18
2018-05-23T08:54:14.170Z,24.19
2018-05-23T08:56:42.097Z,24.24
2018-05-23T08:59:10.330Z,24.30
2018-05-23T09:01:38.670Z,24.24
2018-05-23T09:04:06.716Z,24.36
2018-05-23T09:06:34.725Z,24.46
2018-05-23T09:09:03.027Z,24.52
2018-05-23T09:11:31.054Z,24.64
2018-05-23T09:13:58.953Z,24.51
2018-05-23T09:16:27.126Z,24.65
2018-05-23T09:18:55.480Z,24.88
2018-05-23T09:21:24.043Z,24.86
2018-05-23T09:23:53.157Z,24.63
2018-05-23T09:26:21.174Z,24.52
2018-05-23T09:28:49.362Z,24.36
2018-05-23T09:31:18.214Z,24.60
2018-05-23T09:33:46.029Z,24.63
2018-05-23T09:36:13.820Z,24.76
2018-05-23T09:38:42.807Z,24.50
2018-05-23T09:41:10.739Z,24.51
2018-05-23T09:43:38.549Z,24.60
2018-05-23T09:46:07.135Z,24.62
2018-05-23T09:48:35.202Z,24.79
2018-05-23T09:51:02.989Z,24.61
2018-05-23T09:53:32.661Z,24.78
2018-05-23T09:56:00.958Z,24.65
2018-05-23T09:58:29.016Z,24.78
2018-05-23T10:00:58.625Z,24.85
2018-05-23T10:03:27.003Z,24.63
2018-05-23T10:05:54.870Z,24.69
2018-05-23T10:08:23.238Z,24.94
2018-05-23T10:10:51.346Z,24.59
2018-05-23T10:13:19.333Z,24.42
2018-05-23T10:15:47.772Z,24.49
2018-05-23T10:18:15.801Z,24.53
2018-05-23T10:20:43.605Z,24.59
2018-05-23T10:23:12.081Z,24.57
2018-05-23T10:25:40.155Z,24.55
2018-05-23T10:28:08.025Z,24.69
2018-05-23T10:30:36.300Z,25.01
2018-05-23T10:33:05.122Z,25.25
2018-05-23T10:35:33.124Z,25.30
2018-05-23T10:38:01.876Z,25.19
2018-05-23T10:40:30.227Z,25.15
2018-05-23T10:42:58.161Z,25.07
2018-05-23T10:45:27.181Z,24.63
2018-05-23T10:47:55.357Z,24.68
2018-05-23T10:50:24.710Z,24.73
2018-05-23T10:52:53.648Z,24.89
2018-05-23T10:55:21.767Z,25.00
2018-05-23T10:57:49.719Z,25.03
2018-05-23T11:00:18.822Z,24.88
2018-05-23T11:02:47.111Z,24.93
2018-05-23T11:05:15.231Z,24.96
2018-05-23T11:07:43.806Z,24.94
2018-05-23T11:10:11.650Z,24.96
2018-05-23T11:12:39.588Z,25.01
2018-05-23T11:15:08.114Z,24.81
2018-05-23T11:17:36.307Z,24.81
2018-05-23T11:20:04.660Z,25.08
2018-05-23T11:22:33.471Z,25.26
2018-05-23T11:25:01.576Z,25.13
2018-05-23T11:27:29.487Z,25.27
2018-05-23T11:29:57.919Z,25.19
2018-05-23T11:32:25.788Z,25.19
2018-05-23T11:34:53.727Z,25.01
2018-05-23T11:37:22.445Z,25.15
2018-05-23T11:39:50.527Z,25.07
2018-05-23T11:42:18.281Z,25.16
2018-05-23T11:44:46.622Z,24.95
2018-05-23T11:47:14.696Z,25.30
2018-05-23T11:49:42.717Z,25.45
2018-05-23T11:52:11.532Z,25.64
2018-05-23T11:54:39.932Z,25.42
2018-05-23T11:57:08.412Z,25.34
2018-05-23T11:59:37.064Z,25.34
2018-05-23T12:02:05.586Z,25.53
2018-05-23T12:04:33.652Z,25.51
2018-05-23T12:07:02.131Z,25.63
2018-05-23T12:09:29.995Z,25.30
2018-05-23T12:11:58.272Z,25.40
2018-05-23T12:14:26.548Z,25.66
2018-05-23T12:16:54.518Z,25.66
2018-05-23T12:19:22.590Z,25.71
2018-05-23T12:21:50.738Z,25.72
2018-05-23T12:24:18.639Z,25.60
2018-05-23T12:26:46.815Z,25.76
2018-05-23T12:29:15.309Z,25.98
2018-05-23T12:31:43.613Z,25.98
2018-05-23T12:34:11.541Z,26.03
2018-05-23T12:36:40.236Z,25.89
2018-05-23T12:39:08.042Z,25.95
2018-05-23T12:41:36.131Z,25.98
2018-05-23T12:44:04.993Z,26.02
2018-05-23T12:46:32.907Z,25.97
2018-05-23T12:49:00.776Z,25.94
2018-05-23T12:51:29.563Z,25.96
2018-05-23T12:53:57.430Z,25.88
2018-05-23T12:56:25.404Z,26.04
2018-05-23T12:58:54.493Z,26.18
2018-05-23T13:01:22.362Z,26.09
2018-05-23T13:03:50.227Z,26.09
2018-05-23T13:06:19.129Z,26.14
2018-05-23T13:08:47.089Z,26.14
2018-05-23T13:11:15.576Z,25.92
2018-05-23T13:13:44.268Z,25.65
2018-05-23T13:16:12.197Z,25.83
2018-05-23T13:18:40.086Z,25.79
2018-05-23T13:21:08.683Z,25.73
2018-05-23T13:23:36.463Z,25.72
2018-05-23T13:26:04.338Z,25.72
2018-05-23T13:28:32.848Z,25.89
2018-05-23T13:31:00.692Z,25.93
2018-05-23T13:33:28.616Z,25.82
2018-05-23T13:35:57.057Z,25.39
2018-05-23T13:38:24.859Z,25.37
2018-05-23T13:40:52.710Z,25.24
2018-05-23T13:43:21.106Z,25.26
2018-05-23T13:45:49.076Z,25.44
2018-05-23T13:48:17.351Z,25.61
2018-05-23T13:50:45.961Z,25.51
2018-05-23T13:53:14.294Z,25.41
2018-05-23T13:55:42.172Z,25.71
2018-05-23T13:58:10.585Z,25.62
2018-05-23T14:00:38.518Z,25.58
2018-05-23T14:03:06.640Z,25.44
2018-05-23T14:05:35.593Z,25.31
2018-05-23T14:08:03.461Z,25.31
2018-05-23T14:10:31.731Z,25.34
2018-05-23T14:13:00.000Z,25.23
2018-05-23T14:15:27.978Z,25.19
2018-05-23T14:17:56.254Z,25.09
2018-05-23T14:20:24.508Z,24.96
2018-05-23T14:22:52.399Z,25.12
2018-05-23T14:25:20.669Z,25.24
2018-05-23T14:27:48.847Z,25.26
2018-05-23T14:30:16.627Z,25.39
2018-05-23T14:32:44.788Z,25.44
2018-05-23T14:35:13.192Z,25.30
2018-05-23T14:37:41.032Z,25.50
2018-05-23T14:40:09.178Z,25.52
2018-05-23T14:42:37.689Z,25.55
2018-05-23T14:45:05.583Z,25.70
2018-05-23T14:47:33.922Z,25.55
2018-05-23T14:50:02.232Z,25.31
2018-05-23T14:52:30.116Z,25.05
2018-05-23T14:54:58.172Z,25.05
2018-05-23T14:57:26.421Z,25.00
2018-05-23T14:59:54.767Z,24.97
2018-05-23T15:02:23.491Z,24.84
2018-05-23T15:04:51.863Z,24.83
2018-05-23T15:07:20.234Z,24.86
2018-05-23T15:09:48.486Z,24.78
2018-05-23T15:12:16.766Z,24.72
2018-05-23T15:14:44.862Z,24.41
2018-05-23T15:17:12.933Z,24.56
2018-05-23T15:19:41.438Z,24.56
2018-05-23T15:22:09.847Z,24.91
2018-05-23T15:24:37.820Z,25.02
2018-05-23T15:27:06.117Z,25.08
2018-05-23T15:29:34.825Z,24.97
2018-05-23T15:32:03.171Z,24.94
2018-05-23T15:34:31.581Z,24.90
2018-05-23T15:36:59.448Z,24.81
2018-05-23T15:39:27.858Z,24.77
2018-05-23T15:41:56.309Z,24.69
2018-05-23T15:44:24.181Z,24.75
2018-05-23T15:46:52.355Z,24.88
2018-05-23T15:49:20.692Z,24.80
2018-05-23T15:51:48.723Z,24.82
2018-05-23T15:54:16.683Z,24.74
2018-05-23T15:56:45.043Z,24.84
2018-05-23T15:59:13.268Z,24.90
2018-05-23T16:01:41.182Z,24.84
2018-05-23T16:04:09.769Z,24.92
2018-05-23T16:06:37.939Z,25.00
2018-05-23T16:09:06.080Z,24.85
2018-05-23T16:11:34.505Z,24.71
2018-05-23T16:14:02.302Z,24.40
2018-05-23T16:16:30.629Z,24.41
2018-05-23T16:18:59.118Z,24.42
2018-05-23T16:21:27.006Z,24.57
2018-05-23T16:23:54.890Z,24.65
2018-05-23T16:26:23.534Z,24.72
2018-05-23T16:28:51.301Z,24.71
2018-05-23T16:31:19.370Z,24.69
2018-05-23T16:33:47.508Z,24.64
2018-05-23T16:36:15.388Z,24.58
2018-05-23T16:38:43.589Z,24.64
2018-05-23T16:41:11.969Z,24.65
2018-05-23T16:43:39.759Z,24.55
2018-05-23T16:46:07.718Z,24.63
2018-05-23T16:48:36.301Z,24.57
2018-05-23T16:51:04.147Z,24.36
2018-05-23T16:53:32.292Z,24.25
2018-05-23T16:56:00.599Z,24.30
2018-05-23T16:58:28.545Z,24.36
2018-05-23T17:00:56.742Z,24.31
2018-05-23T17:03:24.852Z,24.28
2018-05-23T17:05:52.904Z,24.25
2018-05-23T17:08:20.895Z,24.31
2018-05-23T17:10:49.123Z,24.33
2018-05-23T17:13:17.061Z,24.35
2018-05-23T17:15:45.370Z,24.17
2018-05-23T17:18:13.748Z,24.09
2018-05-23T17:20:41.584Z,24.07
2018-05-23T17:23:09.834Z,24.10
2018-05-23T17:25:38.266Z,24.12
2018-05-23T17:28:06.253Z,23.85
2018-05-23T17:30:34.410Z,23.95
2018-05-23T17:33:03.049Z,23.93
2018-05-23T17:35:31.188Z,23.95
2018-05-23T17:37:59.362Z,24.01
2018-05-23T17:40:27.830Z,23.89
2018-05-23T17:42:56.351Z,23.94
2018-05-23T17:45:24.648Z,23.94
2018-05-23T17:47:53.059Z,23.91
2018-05-23T17:50:21.666Z,23.88
2018-05-23T17:52:49.921Z,23.89
2018-05-23T17:55:18.370Z,23.81
2018-05-23T17:57:46.298Z,23.69
2018-05-23T18:00:14.366Z,23.70
2018-05-23T18:02:42.634Z,23.72
2018-05-23T18:05:10.533Z,23.73
2018-05-23T18:07:38.666Z,23.71
2018-05-23T18:10:06.839Z,23.72
2018-05-23T18:12:35.312Z,23.66
2018-05-23T18:15:03.655Z,23.62
2018-05-23T18:17:31.962Z,23.56
2018-05-23T18:19:59.832Z,23.50
2018-05-23T18:22:28.137Z,23.43
2018-05-23T18:24:56.670Z,23.38
2018-05-23T18:27:24.654Z,23.36
2018-05-23T18:29:52.788Z,23.29
2018-05-23T18:32:21.105Z,23.25
2018-05-23T18:34:49.488Z,23.23
2018-05-23T18:37:17.879Z,23.21
2018-05-23T18:39:46.069Z,23.12
2018-05-23T18:42:14.053Z,23.06
2018-05-23T18:44:42.377Z,23.12
2018-05-23T18:47:10.760Z,23.10
2018-05-23T18:49:38.906Z,23.01
2018-05-23T18:52:07.620Z,23.04
2018-05-23T18:54:36.160Z,23.00
2018-05-23T18:57:04.443Z,22.99
2018-05-23T18:59:32.723Z,22.98
2018-05-23T19:02:01.321Z,22.94
2018-05-23T19:04:29.179Z,22.91
2018-05-23T19:06:57.688Z,22.86
2018-05-23T19:09:26.064Z,22.82
2018-05-23T19:11:54.452Z,22.80
2018-05-23T19:14:22.925Z,22.78
2018-05-23T19:16:51.768Z,22.71
2018-05-23T19:19:19.679Z,22.65
2018-05-23T19:21:47.950Z,22.64
2018-05-23T19:24:16.542Z,22.62
2018-05-23T19:26:44.707Z,22.61
2018-05-23T19:29:12.798Z,22.49
2018-05-23T19:31:41.267Z,22.51
2018-05-23T19:34:09.416Z,22.40
2018-05-23T19:36:37.732Z,22.35
2018-05-23T19:39:06.491Z,22.35
2018-05-23T19:41:34.434Z,22.32
2018-05-23T19:44:02.906Z,22.29
2018-05-23T19:46:32.658Z,22.25
2018-05-23T19:49:00.831Z,22.21
2018-05-23T19:51:29.495Z,22.19
2018-05-23T19:53:58.008Z,22.13
2018-05-23T19:56:25.963Z,22.05
2018-05-23T19:58:53.955Z,21.87
2018-05-23T20:01:22.852Z,21.90
2018-05-23T20:03:50.903Z,21.87
2018-05-23T20:06:19.162Z,21.78
2018-05-23T20:08:47.600Z,21.76
2018-05-23T20:11:15.812Z,21.70
2018-05-23T20:13:44.059Z,21.66
2018-05-23T20:16:12.483Z,21.55
2018-05-23T20:18:40.540Z,21.56
2018-05-23T20:21:08.623Z,21.52
2018-05-23T20:23:36.913Z,21.45
2018-05-23T20:26:04.828Z,21.41
2018-05-23T20:28:32.949Z,21.41
2018-05-23T20:31:01.329Z,21.41
2018-05-23T20:33:29.392Z,21.41
2018-05-23T20:35:57.669Z,21.38
2018-05-23T20:38:26.177Z,21.35
2018-05-23T20:40:54.227Z,21.28
2018-05-23T20:43:22.664Z,21.27
2018-05-23T20:45:51.083Z,21.20
2018-05-23T20:48:19.353Z,21.13
2018-05-23T20:50:47.731Z,21.07
2018-05-23T20:53:16.471Z,21.01
2018-05-23T20:55:44.627Z,21.02
2018-05-23T20:58:12.930Z,20.98
2018-05-23T21:00:41.319Z,20.94
2018-05-23T21:03:09.319Z,20.87
2018-05-23T21:05:39.608Z,20.85
2018-05-23T21:08:08.223Z,20.81
2018-05-23T21:10:36.186Z,20.78
2018-05-23T21:13:04.285Z,20.74
2018-05-23T21:15:32.738Z,20.66
2018-05-23T21:18:00.609Z,20.60
2018-05-23T21:20:28.676Z,20.58
2018-05-23T21:22:56.959Z,20.54
2018-05-23T21:25:25.234Z,20.48
2018-05-23T21:27:53.532Z,20.41
2018-05-23T21:30:21.902Z,20.34
2018-05-23T21:32:50.852Z,20.31
2018-05-23T21:35:18.637Z,20.25
2018-05-23T21:37:46.879Z,20.23
2018-05-23T21:40:14.996Z,20.21
2018-05-23T21:42:42.851Z,20.16
2018-05-23T21:45:11.205Z,20.16
2018-05-23T21:47:39.137Z,20.17
2018-05-23T21:50:07.048Z,20.12
2018-05-23T21:52:35.443Z,20.13
2018-05-23T21:55:03.530Z,20.11
2018-05-23T21:57:31.380Z,20.07
2018-05-23T21:59:59.742Z,20.01
2018-05-23T22:02:27.731Z,19.95
2018-05-23T22:04:55.457Z,19.90
2018-05-23T22:07:23.872Z,19.88
2018-05-23T22:09:52.079Z,19.82
2018-05-23T22:12:19.912Z,19.78
2018-05-23T22:14:48.510Z,19.81
2018-05-23T22:17:16.670Z,19.82
2018-05-23T22:19:44.512Z,19.86
2018-05-23T22:22:12.820Z,19.79
2018-05-23T22:24:40.940Z,19.83
2018-05-23T22:27:08.793Z,19.81
2018-05-23T22:29:36.944Z,19.75
2018-05-23T22:32:04.973Z,19.74
2018-05-23T22:34:32.874Z,19.72
2018-05-23T22:37:00.979Z,19.68
2018-05-23T22:39:29.228Z,19.65
2018-05-23T22:41:57.179Z,19.63
2018-05-23T22:44:25.844Z,19.59
2018-05-23T22:46:53.833Z,19.53
2018-05-23T22:49:21.711Z,19.48
2018-05-23T22:51:50.181Z,19.43
2018-05-23T22:54:18.291Z,19.38
2018-05-23T22:56:46.033Z,19.31
2018-05-23T22:59:14.394Z,19.29
2018-05-23T23:01:42.665Z,19.19
2018-05-23T23:04:10.644Z,19.12
2018-05-23T23:06:39.118Z,19.11
2018-05-23T23:09:07.185Z,19.10
2018-05-23T23:11:34.953Z,19.03
2018-05-23T23:14:03.337Z,18.96
2018-05-23T23:16:31.248Z,18.91
2018-05-23T23:18:59.235Z,18.86
2018-05-23T23:21:27.774Z,18.80
2018-05-23T23:23:56.125Z,18.81
2018-05-23T23:26:23.986Z,18.78
2018-05-23T23:28:52.068Z,18.76
2018-05-23T23:31:19.945Z,18.72
2018-05-23T23:33:47.783Z,18.66
2018-05-23T23:36:16.174Z,18.58
2018-05-23T23:38:44.348Z,18.56
2018-05-23T23:41:12.214Z,18.52
2018-05-23T23:43:40.415Z,18.50
2018-05-23T23:46:08.803Z,18.44
2018-05-23T23:48:36.635Z,18.41
2018-05-23T23:51:04.760Z,18.40
2018-05-23T23:53:32.782Z,18.43
2018-05-23T23:56:00.648Z,18.41
2018-05-23T23:58:28.915Z,18.41
